createdAt,value
2022-10-08T00:01:44.085Z,64.86
2022-10-08T00:04:13.710Z,64.96
2022-10-08T00:06:42.143Z,65.01
2022-10-08T00:09:11.843Z,65.00
2022-10-08T00:11:42.834Z,65.11
2022-10-08T00:14:11.344Z,65.50
2022-10-08T00:16:41.647Z,65.69
2022-10-08T00:19:13.415Z,65.87
2022-10-08T00:21:44.113Z,66.06
2022-10-08T00:24:16.266Z,65.65
2022-10-08T00:26:45.431Z,65.95
2022-10-08T00:29:17.004Z,65.95
2022-10-08T00:31:47.490Z,65.62
2022-10-08T00:34:17.726Z,65.84
2022-10-08T00:36:47.567Z,65.91
2022-10-08T00:39:20.461Z,65.50
2022-10-08T00:41:50.538Z,65.87
2022-10-08T00:44:58.858Z,65.27
2022-10-08T00:47:41.942Z,65.50
2022-10-08T00:50:21.667Z,65.71
2022-10-08T00:52:53.837Z,65.50
2022-10-08T00:55:27.758Z,65.95
2022-10-08T00:57:58.407Z,65.84
2022-10-08T01:00:28.187Z,65.83
2022-10-08T01:02:56.746Z,65.67
2022-10-08T01:05:34.035Z,65.74
2022-10-08T01:08:14.786Z,65.57
2022-10-08T01:10:52.763Z,65.69
2022-10-08T01:13:33.775Z,65.72
2022-10-08T01:16:10.784Z,65.73
2022-10-08T01:18:46.867Z,65.61
2022-10-08T01:21:19.824Z,65.79
2022-10-08T01:24:09.792Z,65.82
2022-10-08T01:26:52.628Z,65.82
2022-10-08T01:29:26.726Z,65.59
2022-10-08T01:31:59.791Z,65.72
2022-10-08T01:34:33.360Z,65.64
2022-10-08T01:37:05.312Z,65.51
2022-10-08T01:39:38.369Z,65.34
2022-10-08T01:42:10.936Z,65.33
2022-10-08T01:44:46.539Z,65.13
2022-10-08T01:47:21.671Z,65.12
2022-10-08T01:49:54.530Z,64.87
2022-10-08T01:52:28.767Z,65.23
2022-10-08T01:55:01.842Z,65.27
2022-10-08T01:57:32.378Z,65.33
2022-10-08T02:00:09.710Z,64.99
2022-10-08T02:02:38.548Z,64.99
2022-10-08T02:05:08.362Z,64.85
2022-10-08T02:07:39.720Z,64.63
2022-10-08T02:10:10.335Z,64.57
2022-10-08T02:12:40.327Z,64.38
2022-10-08T02:15:15.446Z,64.42
2022-10-08T02:17:57.029Z,64.11
2022-10-08T02:20:32.466Z,64.16
2022-10-08T02:23:05.487Z,64.17
2022-10-08T02:25:38.835Z,64.24
2022-10-08T02:28:15.955Z,63.18
2022-10-08T02:30:52.978Z,62.22
2022-10-08T02:33:26.848Z,62.30
2022-10-08T02:35:58.975Z,62.30
2022-10-08T02:38:33.685Z,61.89
2022-10-08T02:41:06.103Z,61.84
2022-10-08T02:43:38.059Z,61.61
2022-10-08T02:46:15.217Z,61.80
2022-10-08T02:48:49.530Z,61.46
2022-10-08T02:51:19.995Z,61.36
2022-10-08T02:53:49.559Z,60.80
2022-10-08T02:56:27.762Z,60.44
2022-10-08T02:58:57.325Z,60.57
2022-10-08T03:01:38.058Z,59.60
2022-10-08T03:04:11.427Z,59.87
2022-10-08T03:06:40.260Z,59.57
2022-10-08T03:09:13.087Z,59.60
2022-10-08T03:11:41.945Z,59.60
2022-10-08T03:14:14.216Z,59.73
2022-10-08T03:16:46.368Z,59.42
2022-10-08T03:19:17.383Z,59.55
2022-10-08T03:21:48.615Z,59.69
2022-10-08T03:24:17.176Z,59.64
2022-10-08T03:26:45.515Z,59.93
2022-10-08T03:29:14.304Z,59.74
2022-10-08T03:31:43.995Z,59.72
2022-10-08T03:34:12.437Z,59.85
2022-10-08T03:36:40.736Z,60.19
2022-10-08T03:39:10.407Z,60.08
2022-10-08T03:41:39.109Z,60.29
2022-10-08T03:44:09.475Z,59.99
2022-10-08T03:46:37.890Z,60.24
2022-10-08T03:49:08.022Z,60.22
2022-10-08T03:51:36.549Z,60.06
2022-10-08T03:54:05.035Z,60.49
2022-10-08T03:56:33.517Z,60.08
2022-10-08T03:59:03.877Z,59.74
2022-10-08T04:01:32.377Z,59.86
2022-10-08T04:04:01.232Z,59.72
2022-10-08T04:06:31.374Z,59.56
2022-10-08T04:09:01.671Z,59.89
2022-10-08T04:11:31.855Z,59.87
2022-10-08T04:14:02.010Z,59.63
2022-10-08T04:16:30.850Z,59.73
2022-10-08T04:18:59.482Z,59.57
2022-10-08T04:21:28.174Z,59.48
2022-10-08T04:23:58.215Z,59.99
2022-10-08T04:26:26.632Z,59.93
2022-10-08T04:28:55.069Z,59.83
2022-10-08T04:31:24.575Z,59.85
2022-10-08T04:33:53.828Z,60.04
2022-10-08T04:36:24.134Z,60.07
2022-10-08T04:38:53.018Z,59.91
2022-10-08T04:41:24.162Z,59.89
2022-10-08T04:43:54.795Z,59.74
2022-10-08T04:46:23.790Z,60.41
2022-10-08T04:48:53.943Z,60.11
2022-10-08T04:51:24.004Z,59.87
2022-10-08T04:53:53.044Z,59.98
2022-10-08T04:56:24.800Z,60.07
2022-10-08T04:58:55.261Z,59.70
2022-10-08T05:01:25.728Z,60.01
2022-10-08T05:03:55.947Z,60.22
2022-10-08T05:06:26.653Z,60.02
2022-10-08T05:08:55.664Z,59.98
2022-10-08T05:11:27.656Z,60.25
2022-10-08T05:13:57.955Z,60.22
2022-10-08T05:16:27.471Z,60.04
2022-10-08T05:18:56.197Z,60.18
2022-10-08T05:21:26.576Z,60.13
2022-10-08T05:23:59.227Z,59.83
2022-10-08T05:26:58.203Z,59.72
2022-10-08T05:29:20.000Z,59.98
2022-10-08T05:31:48.319Z,59.88
2022-10-08T05:34:17.107Z,59.86
2022-10-08T05:36:45.472Z,60.00
2022-10-08T05:39:13.929Z,59.92
2022-10-08T05:41:43.886Z,59.75
2022-10-08T05:44:14.720Z,60.00
2022-10-08T05:46:43.171Z,59.96
2022-10-08T05:49:19.610Z,59.81
2022-10-08T05:51:48.050Z,59.80
2022-10-08T05:54:17.027Z,59.94
2022-10-08T05:56:47.178Z,60.02
2022-10-08T05:59:18.845Z,59.92
2022-10-08T06:01:47.909Z,59.86
2022-10-08T06:04:17.430Z,60.06
2022-10-08T06:06:46.459Z,60.08
2022-10-08T06:09:16.838Z,59.73
2022-10-08T06:11:47.890Z,59.86
2022-10-08T06:14:19.364Z,60.11
2022-10-08T06:16:47.791Z,60.26
2022-10-08T06:19:16.969Z,60.11
2022-10-08T06:21:45.655Z,60.25
2022-10-08T06:24:14.850Z,60.37
2022-10-08T06:26:44.638Z,60.33
2022-10-08T06:29:16.647Z,60.40
2022-10-08T06:31:45.373Z,60.50
2022-10-08T06:34:13.699Z,60.70
2022-10-08T06:36:42.210Z,60.84
2022-10-08T06:39:14.089Z,60.61
2022-10-08T06:41:42.599Z,60.75
2022-10-08T06:44:14.923Z,60.78
2022-10-08T06:46:44.285Z,60.53
2022-10-08T06:49:13.667Z,60.28
2022-10-08T06:51:42.299Z,59.95
2022-10-08T06:54:11.428Z,60.17
2022-10-08T06:56:40.030Z,60.12
2022-10-08T06:59:09.947Z,60.14
2022-10-08T07:01:40.350Z,59.45
2022-10-08T07:04:09.269Z,59.07
2022-10-08T07:06:37.695Z,58.65
2022-10-08T07:09:07.803Z,58.75
2022-10-08T07:11:37.306Z,58.96
2022-10-08T07:14:05.860Z,58.56
2022-10-08T07:16:34.270Z,58.47
2022-10-08T07:19:04.616Z,57.79
2022-10-08T07:21:33.335Z,58.04
2022-10-08T07:24:03.107Z,57.99
2022-10-08T07:26:34.624Z,57.95
2022-10-08T07:29:06.240Z,57.80
2022-10-08T07:31:37.189Z,57.64
2022-10-08T07:34:09.054Z,57.71
2022-10-08T07:36:38.210Z,57.44
2022-10-08T07:39:08.728Z,57.26
2022-10-08T07:41:37.515Z,57.37
2022-10-08T07:44:07.710Z,57.24
2022-10-08T07:46:39.098Z,57.19
2022-10-08T07:49:08.946Z,57.00
2022-10-08T07:51:38.294Z,56.87
2022-10-08T07:54:08.868Z,57.02
2022-10-08T07:56:37.932Z,55.63
2022-10-08T07:59:07.535Z,55.63
2022-10-08T08:01:36.635Z,55.83
2022-10-08T08:04:07.597Z,55.75
2022-10-08T08:06:42.156Z,54.84
2022-10-08T08:09:11.314Z,54.55
2022-10-08T08:11:40.185Z,54.36
2022-10-08T08:14:09.349Z,54.50
2022-10-08T08:16:38.109Z,54.17
2022-10-08T08:19:06.623Z,54.26
2022-10-08T08:21:39.293Z,54.09
2022-10-08T08:24:09.249Z,54.37
2022-10-08T08:26:39.881Z,54.22
2022-10-08T08:29:11.665Z,54.44
2022-10-08T08:31:43.536Z,54.46
2022-10-08T08:34:15.675Z,54.06
2022-10-08T08:36:47.534Z,53.99
2022-10-08T08:39:18.213Z,53.97
2022-10-08T08:41:55.826Z,53.98
2022-10-08T08:44:26.315Z,54.31
2022-10-08T08:46:58.435Z,54.40
2022-10-08T08:49:33.959Z,54.33
2022-10-08T08:52:06.075Z,54.20
2022-10-08T08:54:34.639Z,53.61
2022-10-08T08:57:13.411Z,53.91
2022-10-08T08:59:48.064Z,54.00
2022-10-08T09:02:24.569Z,54.11
2022-10-08T09:04:57.861Z,53.93
2022-10-08T09:07:35.147Z,53.97
2022-10-08T09:10:09.563Z,53.85
2022-10-08T09:12:39.607Z,53.47
2022-10-08T09:15:18.824Z,53.44
2022-10-08T09:17:52.185Z,53.67
2022-10-08T09:20:25.947Z,53.93
2022-10-08T09:22:56.022Z,54.10
2022-10-08T09:25:25.845Z,54.09
2022-10-08T09:27:57.006Z,53.68
2022-10-08T09:30:32.898Z,53.42
2022-10-08T09:33:04.679Z,53.36
2022-10-08T09:35:35.260Z,53.14
2022-10-08T09:38:06.358Z,52.18
2022-10-08T09:40:34.858Z,52.71
2022-10-08T09:43:20.987Z,52.53
2022-10-08T09:45:51.755Z,52.44
2022-10-08T09:48:25.216Z,52.28
2022-10-08T09:51:06.690Z,51.65
2022-10-08T09:53:42.827Z,51.99
2022-10-08T09:56:13.989Z,51.02
2022-10-08T09:58:52.898Z,50.78
2022-10-08T10:01:22.057Z,50.32
2022-10-08T10:03:52.898Z,50.64
2022-10-08T10:06:30.243Z,50.78
2022-10-08T10:09:04.390Z,50.36
2022-10-08T10:11:41.942Z,50.61
2022-10-08T10:14:20.954Z,49.69
2022-10-08T10:16:54.666Z,50.46
2022-10-08T10:19:24.018Z,50.79
2022-10-08T10:21:58.130Z,50.12
2022-10-08T10:24:49.616Z,49.97
2022-10-08T10:27:26.193Z,50.03
2022-10-08T10:30:04.371Z,49.49
2022-10-08T10:32:39.898Z,49.33
2022-10-08T10:35:16.885Z,49.15
2022-10-08T10:37:51.182Z,48.96
2022-10-08T10:40:31.450Z,49.19
2022-10-08T10:43:19.537Z,49.43
2022-10-08T10:45:52.846Z,49.20
2022-10-08T10:48:21.278Z,48.89
2022-10-08T10:51:05.379Z,49.28
2022-10-08T10:53:44.466Z,49.36
2022-10-08T10:56:19.295Z,48.64
2022-10-08T10:59:18.385Z,49.12
2022-10-08T11:01:54.048Z,49.56
2022-10-08T11:04:40.633Z,49.64
2022-10-08T11:07:24.898Z,49.39
2022-10-08T11:10:00.086Z,49.77
2022-10-08T11:12:39.534Z,49.86
2022-10-08T11:15:19.547Z,49.64
2022-10-08T11:18:08.671Z,50.24
2022-10-08T11:20:50.003Z,50.68
2022-10-08T11:23:35.530Z,50.41
2022-10-08T11:26:21.880Z,50.66
2022-10-08T11:29:07.608Z,50.52
2022-10-08T11:31:42.959Z,50.67
2022-10-08T11:34:24.384Z,50.77
2022-10-08T11:37:03.095Z,51.15
2022-10-08T11:39:41.738Z,51.21
2022-10-08T11:42:16.579Z,51.13
2022-10-08T11:44:46.972Z,51.36
2022-10-08T11:47:53.232Z,51.76
2022-10-08T11:50:32.410Z,52.14
2022-10-08T11:53:14.462Z,52.82
2022-10-08T11:55:52.437Z,53.35
2022-10-08T11:58:28.167Z,53.94
2022-10-08T12:01:06.296Z,54.73
2022-10-08T12:03:37.528Z,54.88
2022-10-08T12:06:17.167Z,56.01
2022-10-08T12:08:54.543Z,56.54
2022-10-08T12:11:52.121Z,57.33
2022-10-08T12:14:35.147Z,56.96
2022-10-08T12:17:13.536Z,59.07
2022-10-08T12:20:02.600Z,58.03
2022-10-08T12:23:00.541Z,58.90
2022-10-08T12:25:44.456Z,58.99
2022-10-08T12:28:50.749Z,59.75
2022-10-08T12:31:31.610Z,59.60
2022-10-08T12:34:14.248Z,59.84
2022-10-08T12:36:53.681Z,59.90
2022-10-08T12:39:35.475Z,60.21
2022-10-08T12:42:15.050Z,60.37
2022-10-08T12:44:57.050Z,60.36
2022-10-08T12:47:35.829Z,60.78
2022-10-08T12:50:19.281Z,60.76
2022-10-08T12:52:48.182Z,60.60
2022-10-08T12:55:19.155Z,60.66
2022-10-08T12:57:50.384Z,60.55
2022-10-08T13:00:23.980Z,60.83
2022-10-08T13:03:02.702Z,61.20
2022-10-08T13:05:35.206Z,61.15
2022-10-08T13:08:30.258Z,61.11
2022-10-08T13:11:00.234Z,61.29
2022-10-08T13:13:42.915Z,61.33
2022-10-08T13:16:13.494Z,60.91
2022-10-08T13:18:44.179Z,60.85
2022-10-08T13:21:38.571Z,60.67
2022-10-08T13:24:31.828Z,60.23
2022-10-08T13:27:00.211Z,59.84
2022-10-08T13:29:35.003Z,58.97
2022-10-08T13:32:07.228Z,59.09
2022-10-08T13:34:46.577Z,59.27
2022-10-08T13:37:26.086Z,59.44
2022-10-08T13:39:56.588Z,59.52
2022-10-08T13:42:27.379Z,59.69
2022-10-08T13:44:55.827Z,59.73
2022-10-08T13:47:24.466Z,59.44
2022-10-08T13:49:55.749Z,59.25
2022-10-08T13:52:26.905Z,58.62
2022-10-08T13:55:01.142Z,58.90
2022-10-08T13:57:29.523Z,59.17
2022-10-08T13:59:57.930Z,58.69
2022-10-08T14:02:28.148Z,57.83
2022-10-08T14:04:56.522Z,57.76
2022-10-08T14:07:29.564Z,57.96
2022-10-08T14:10:01.009Z,58.13
2022-10-08T14:12:32.708Z,58.25
2022-10-08T14:15:02.126Z,58.19
2022-10-08T14:17:30.410Z,57.87
2022-10-08T14:19:59.286Z,57.90
2022-10-08T14:22:29.044Z,57.11
2022-10-08T14:24:57.427Z,56.83
2022-10-08T14:27:25.893Z,56.91
2022-10-08T14:29:54.211Z,56.82
2022-10-08T14:32:22.515Z,57.05
2022-10-08T14:34:50.968Z,57.26
2022-10-08T14:37:19.370Z,57.09
2022-10-08T14:39:49.392Z,56.97
2022-10-08T14:42:18.339Z,56.90
2022-10-08T14:44:48.161Z,56.89
2022-10-08T14:47:17.446Z,56.85
2022-10-08T14:49:46.038Z,56.83
2022-10-08T14:52:14.940Z,56.37
2022-10-08T14:54:43.394Z,56.60
2022-10-08T14:57:13.178Z,56.30
2022-10-08T14:59:41.435Z,56.36
2022-10-08T15:02:11.339Z,56.42
2022-10-08T15:04:39.823Z,56.60
2022-10-08T15:07:08.091Z,56.68
2022-10-08T15:09:37.410Z,56.65
2022-10-08T15:12:06.028Z,56.54
2022-10-08T15:14:38.397Z,56.05
2022-10-08T15:17:10.696Z,55.92
2022-10-08T15:19:39.365Z,55.94
2022-10-08T15:22:08.104Z,55.72
2022-10-08T15:24:36.458Z,55.52
2022-10-08T15:27:04.874Z,55.77
2022-10-08T15:29:33.194Z,56.23
2022-10-08T15:32:03.563Z,56.50
2022-10-08T15:34:32.478Z,56.56
2022-10-08T15:37:00.796Z,56.59
2022-10-08T15:39:35.533Z,56.94
2022-10-08T15:42:04.835Z,57.03
2022-10-08T15:44:33.506Z,57.16
2022-10-08T15:47:06.323Z,56.79
2022-10-08T15:49:37.087Z,56.56
2022-10-08T15:52:07.022Z,56.76
2022-10-08T15:54:36.794Z,56.80
2022-10-08T15:57:05.225Z,56.93
2022-10-08T15:59:34.241Z,57.10
2022-10-08T16:02:04.165Z,56.92
2022-10-08T16:04:32.602Z,56.99
2022-10-08T16:07:01.678Z,57.08
2022-10-08T16:09:30.406Z,56.92
2022-10-08T16:11:59.006Z,57.13
2022-10-08T16:14:28.244Z,57.02
2022-10-08T16:16:56.806Z,57.13
2022-10-08T16:19:28.208Z,56.90
2022-10-08T16:21:58.139Z,56.81
2022-10-08T16:24:27.198Z,57.12
2022-10-08T16:26:55.674Z,57.32
2022-10-08T16:29:23.944Z,57.21
2022-10-08T16:31:52.392Z,57.20
2022-10-08T16:34:22.864Z,57.07
2022-10-08T16:36:53.473Z,56.99
2022-10-08T16:39:24.509Z,56.91
2022-10-08T16:41:53.022Z,56.93
2022-10-08T16:44:22.726Z,56.81
2022-10-08T16:46:52.812Z,56.36
2022-10-08T16:49:25.465Z,56.27
2022-10-08T16:51:57.635Z,56.55
2022-10-08T16:54:26.500Z,56.67
2022-10-08T16:56:55.183Z,56.88
2022-10-08T16:59:25.844Z,56.98
2022-10-08T17:01:56.414Z,57.31
2022-10-08T17:04:28.020Z,57.48
2022-10-08T17:06:58.377Z,57.20
2022-10-08T17:09:26.697Z,57.38
2022-10-08T17:11:55.247Z,57.05
2022-10-08T17:14:23.791Z,57.05
2022-10-08T17:16:52.401Z,57.29
2022-10-08T17:19:21.827Z,57.29
2022-10-08T17:21:50.380Z,57.62
2022-10-08T17:24:20.335Z,57.87
2022-10-08T17:26:49.800Z,58.05
2022-10-08T17:29:18.591Z,58.02
2022-10-08T17:31:47.010Z,58.13
2022-10-08T17:34:15.440Z,58.27
2022-10-08T17:36:44.501Z,58.32
2022-10-08T17:39:15.621Z,58.21
2022-10-08T17:41:45.748Z,58.22
2022-10-08T17:44:14.709Z,58.25
2022-10-08T17:46:46.444Z,57.86
2022-10-08T17:49:15.772Z,57.99
2022-10-08T17:51:44.937Z,57.91
2022-10-08T17:54:16.307Z,58.12
2022-10-08T17:56:46.672Z,57.96
2022-10-08T17:59:15.901Z,57.86
2022-10-08T18:01:45.958Z,58.02
2022-10-08T18:04:17.017Z,58.01
2022-10-08T18:06:47.365Z,57.79
2022-10-08T18:09:18.534Z,57.66
2022-10-08T18:11:51.395Z,57.64
2022-10-08T18:14:19.975Z,57.59
2022-10-08T18:16:48.969Z,57.44
2022-10-08T18:19:17.811Z,57.37
2022-10-08T18:21:46.949Z,57.13
2022-10-08T18:24:15.895Z,57.13
2022-10-08T18:26:47.510Z,57.07
2022-10-08T18:29:18.756Z,57.05
2022-10-08T18:31:47.940Z,56.98
2022-10-08T18:34:18.383Z,57.20
2022-10-08T18:36:48.470Z,57.17
2022-10-08T18:39:26.014Z,57.04
2022-10-08T18:41:56.835Z,56.99
2022-10-08T18:44:28.464Z,57.30
2022-10-08T18:46:59.678Z,57.32
2022-10-08T18:49:34.036Z,57.39
2022-10-08T18:52:04.216Z,57.56
2022-10-08T18:54:32.780Z,57.38
2022-10-08T18:57:02.524Z,57.39
2022-10-08T18:59:35.506Z,57.40
2022-10-08T19:02:03.989Z,57.55
2022-10-08T19:04:32.695Z,57.44
2022-10-08T19:07:01.696Z,57.43
2022-10-08T19:09:30.481Z,57.48
2022-10-08T19:11:58.759Z,57.31
2022-10-08T19:14:28.418Z,57.33
2022-10-08T19:16:59.898Z,57.21
2022-10-08T19:19:28.808Z,57.36
2022-10-08T19:22:02.890Z,57.50
2022-10-08T19:24:31.369Z,57.42
2022-10-08T19:27:00.236Z,57.34
2022-10-08T19:29:33.459Z,57.42
2022-10-08T19:32:03.651Z,57.38
2022-10-08T19:34:33.572Z,57.38
2022-10-08T19:37:02.230Z,57.38
2022-10-08T19:39:31.958Z,57.30
2022-10-08T19:42:01.447Z,57.13
2022-10-08T19:44:31.088Z,57.18
2022-10-08T19:47:00.650Z,57.49
2022-10-08T19:49:32.054Z,57.57
2022-10-08T19:52:01.871Z,57.82
2022-10-08T19:54:31.783Z,58.00
2022-10-08T19:57:01.287Z,58.06
2022-10-08T19:59:31.395Z,58.03
2022-10-08T20:02:01.460Z,57.94
2022-10-08T20:04:34.626Z,58.16
2022-10-08T20:07:05.280Z,58.08
2022-10-08T20:09:36.862Z,58.02
2022-10-08T20:12:07.897Z,58.25
2022-10-08T20:14:37.791Z,58.20
2022-10-08T20:17:06.559Z,58.03
2022-10-08T20:19:37.948Z,57.99
2022-10-08T20:22:11.646Z,58.03
2022-10-08T20:24:41.844Z,58.09
2022-10-08T20:27:12.233Z,57.65
2022-10-08T20:29:42.144Z,57.42
2022-10-08T20:32:12.588Z,57.18
2022-10-08T20:34:44.010Z,57.10
2022-10-08T20:37:13.682Z,57.14
2022-10-08T20:39:43.398Z,57.04
2022-10-08T20:42:11.834Z,56.81
2022-10-08T20:44:40.914Z,56.95
2022-10-08T20:47:09.288Z,57.13
2022-10-08T20:49:37.851Z,57.13
2022-10-08T20:52:08.208Z,56.89
2022-10-08T20:54:36.732Z,56.59
2022-10-08T20:57:05.199Z,56.03
2022-10-08T20:59:34.755Z,55.55
2022-10-08T21:02:04.414Z,55.67
2022-10-08T21:04:33.071Z,55.39
2022-10-08T21:07:01.427Z,55.09
2022-10-08T21:09:31.325Z,54.90
2022-10-08T21:11:59.674Z,54.63
2022-10-08T21:14:28.110Z,54.80
2022-10-08T21:16:56.522Z,54.98
2022-10-08T21:19:26.309Z,55.11
2022-10-08T21:21:55.070Z,55.41
2022-10-08T21:24:26.007Z,55.58
2022-10-08T21:26:56.683Z,55.69
2022-10-08T21:29:25.011Z,55.99
2022-10-08T21:31:54.037Z,56.13
2022-10-08T21:34:22.423Z,56.32
2022-10-08T21:36:51.120Z,56.30
2022-10-08T21:39:19.894Z,56.48
2022-10-08T21:41:48.621Z,56.71
2022-10-08T21:44:18.363Z,56.96
2022-10-08T21:46:46.968Z,57.17
2022-10-08T21:49:17.608Z,57.32
2022-10-08T21:51:46.244Z,57.23
2022-10-08T21:54:15.047Z,57.08
2022-10-08T21:56:44.000Z,57.17
2022-10-08T21:59:13.967Z,57.15
2022-10-08T22:01:45.306Z,57.41
2022-10-08T22:04:16.557Z,57.53
2022-10-08T22:06:47.454Z,57.78
2022-10-08T22:09:17.823Z,57.65
2022-10-08T22:11:46.242Z,57.71
2022-10-08T22:14:14.922Z,57.70
2022-10-08T22:16:45.544Z,57.95
2022-10-08T22:19:14.556Z,57.92
2022-10-08T22:21:43.310Z,57.98
2022-10-08T22:24:12.719Z,57.86
2022-10-08T22:26:43.067Z,58.16
2022-10-08T22:29:11.812Z,57.91
2022-10-08T22:31:40.738Z,58.02
2022-10-08T22:34:10.759Z,57.90
2022-10-08T22:36:41.678Z,58.11
2022-10-08T22:39:10.580Z,58.23
2022-10-08T22:41:39.284Z,58.20
2022-10-08T22:44:07.806Z,58.63
2022-10-08T22:46:38.216Z,58.70
2022-10-08T22:49:08.989Z,58.66
2022-10-08T22:51:39.470Z,58.79
2022-10-08T22:54:10.619Z,59.06
2022-10-08T22:56:38.934Z,59.15
2022-10-08T22:59:07.405Z,59.22
2022-10-08T23:01:35.751Z,59.42
2022-10-08T23:04:04.830Z,59.32
2022-10-08T23:06:37.283Z,58.92
2022-10-08T23:09:08.823Z,58.79
2022-10-08T23:11:37.339Z,58.91
2022-10-08T23:14:06.444Z,58.85
2022-10-08T23:16:36.127Z,59.00
2022-10-08T23:19:06.489Z,59.10
2022-10-08T23:21:35.767Z,59.06
2022-10-08T23:24:04.659Z,58.92
2022-10-08T23:26:34.794Z,58.72
2022-10-08T23:29:03.965Z,58.81
2022-10-08T23:31:33.660Z,59.03
2022-10-08T23:34:02.686Z,59.03
2022-10-08T23:36:33.401Z,59.40
2022-10-08T23:39:02.390Z,59.25
2022-10-08T23:41:31.116Z,59.40
2022-10-08T23:44:01.605Z,59.20
2022-10-08T23:46:31.689Z,59.35
2022-10-08T23:49:00.845Z,59.28
2022-10-08T23:51:31.827Z,59.31
2022-10-08T23:54:01.253Z,59.28
2022-10-08T23:56:30.579Z,59.25
2022-10-08T23:59:01.022Z,59.49
